Time;durP1;ratioP1;P1;durP2;ratioP2;P2;SDS_P1;SDS_P2;PMS_P1;PMS_P2;Temp;Humidity;BMP_temperature;BMP_pressure;BME280_temperature;BME280_humidity;BME280_pressure;Samples;Min_cycle;Max_cycle;Signal;HPM_P1;HPM_P2
2023/11/03 00:01:35;;;;;;;;;;;;;;;15.36;59.59;98865.56;5092485;28;19908;-76
2023/11/03 00:04:01;;;;;;;;;;;;;;;15.36;59.33;98861.03;5092330;28;19927;-77
2023/11/03 00:06:26;;;;;;;;;;;;;;;15.38;59.41;98860.81;5092311;28;19920;-76
2023/11/03 00:08:52;;;;;;;;;;;;;;;15.39;59.10;98851.81;5090929;28;20395;-77
2023/11/03 00:11:17;;;;;;;;;;;;;;;15.40;59.17;98843.59;5092280;28;20369;-77
2023/11/03 00:13:44;;;;;;;;;;;;;;;15.41;59.03;98836.44;5092296;28;19912;-76
2023/11/03 00:16:09;;;;;;;;;;;;;;;15.37;59.33;98830.75;5074144;28;19970;-76
2023/11/03 00:18:34;;;;;;;;;;;;;;;15.35;59.20;98821.38;5092081;28;20381;-77
2023/11/03 00:21:03;;;;;;;;;;;;;;;15.32;59.37;98803.22;5091879;28;19981;-76
2023/11/03 00:23:29;;;;;;;;;;;;;;;15.31;59.46;98786.44;5092055;28;19916;-77
2023/11/03 00:25:54;;;;;;;;;;;;;;;15.34;59.07;98795.81;5092087;28;19969;-76
2023/11/03 00:28:21;;;;;;;;;;;;;;;15.34;59.35;98793.16;5092080;28;19955;-76
2023/11/03 00:30:46;;;;;;;;;;;;;;;15.31;59.76;98786.44;5090751;28;19939;-76
2023/11/03 00:33:14;;;;;;;;;;;;;;;15.27;59.92;98779.94;5092064;28;19954;-76
2023/11/03 00:35:41;;;;;;;;;;;;;;;15.18;60.00;98771.47;5092237;28;19947;-77
2023/11/03 00:38:06;;;;;;;;;;;;;;;15.13;60.16;98776.66;5092064;28;19951;-76
2023/11/03 00:40:31;;;;;;;;;;;;;;;15.11;60.36;98777.94;5092456;28;20312;-77
2023/11/03 00:43:00;;;;;;;;;;;;;;;15.11;60.55;98784.06;5093747;28;20376;-77
2023/11/03 00:45:25;;;;;;;;;;;;;;;15.12;60.13;98795.50;5094848;28;19916;-77
2023/11/03 00:47:51;;;;;;;;;;;;;;;15.11;60.18;98794.69;5098486;28;19954;-76
2023/11/03 00:50:16;;;;;;;;;;;;;;;15.10;60.81;98776.31;5095128;28;19916;-76
2023/11/03 00:52:41;;;;;;;;;;;;;;;15.08;60.32;98775.72;5096013;28;19912;-77
2023/11/03 00:55:07;;;;;;;;;;;;;;;15.12;60.12;98772.38;5099566;28;19912;-76
2023/11/03 00:57:32;;;;;;;;;;;;;;;15.11;60.28;98773.44;5099993;28;20418;-77
2023/11/03 00:59:57;;;;;;;;;;;;;;;15.14;60.01;98777.47;5095906;28;19971;-78
2023/11/03 01:02:23;;;;;;;;;;;;;;;15.17;59.99;98782.34;5095661;28;19963;-77
2023/11/03 01:04:48;;;;;;;;;;;;;;;15.18;60.02;98787.44;5095871;28;19922;-77
2023/11/03 01:07:13;;;;;;;;;;;;;;;15.18;59.75;98798.06;5095494;28;20351;-77
2023/11/03 01:09:39;;;;;;;;;;;;;;;15.13;59.94;98794.47;5095586;28;19985;-76
2023/11/03 01:12:04;;;;;;;;;;;;;;;15.09;59.70;98804.75;5095648;28;19912;-76
2023/11/03 01:14:32;;;;;;;;;;;;;;;15.03;59.54;98807.50;5095427;28;19921;-76
2023/11/03 01:16:58;;;;;;;;;;;;;;;14.97;59.41;98801.22;5095528;28;19912;-77
2023/11/03 01:19:23;;;;;;;;;;;;;;;14.91;59.56;98800.28;5094113;28;20346;-77
2023/11/03 01:21:48;;;;;;;;;;;;;;;14.86;59.65;98799.28;5095178;28;20432;-76
2023/11/03 01:24:13;;;;;;;;;;;;;;;14.78;59.40;98799.59;5095546;28;19912;-78
2023/11/03 01:26:39;;;;;;;;;;;;;;;14.70;59.46;98786.63;5077067;28;19916;-76
2023/11/03 01:29:04;;;;;;;;;;;;;;;14.58;59.68;98787.38;5095280;28;19965;-77
2023/11/03 01:31:30;;;;;;;;;;;;;;;14.55;60.03;98779.03;5095246;28;20007;-76
2023/11/03 01:33:55;;;;;;;;;;;;;;;14.54;59.80;98783.53;5093986;28;19912;-78
2023/11/03 01:36:20;;;;;;;;;;;;;;;14.55;60.26;98779.03;5095103;28;19916;-76
2023/11/03 01:38:48;;;;;;;;;;;;;;;14.48;59.69;98776.44;5076729;28;19959;-76
2023/11/03 01:41:15;;;;;;;;;;;;;;;14.39;60.09;98772.44;5095120;28;19927;-77
2023/11/03 01:43:59;;;;;;;;;;;;;;;14.35;59.95;98773.09;5094932;28;19988;-77
2023/11/03 01:46:24;;;;;;;;;;;;;;;14.31;60.71;98786.81;5094864;28;19922;-76
2023/11/03 01:48:50;;;;;;;;;;;;;;;14.34;60.39;98787.41;5095141;28;19912;-76
2023/11/03 01:51:15;;;;;;;;;;;;;;;14.34;60.43;98790.88;5094934;28;19912;-77
2023/11/03 01:53:41;;;;;;;;;;;;;;;14.31;60.71;98793.97;5094865;28;19919;-76
2023/11/03 01:56:06;;;;;;;;;;;;;;;14.37;60.18;98790.44;5094571;28;19912;-77
2023/11/03 01:58:31;;;;;;;;;;;;;;;14.39;60.45;98796.34;5094832;28;19969;-76
2023/11/03 02:00:57;;;;;;;;;;;;;;;14.41;60.39;98799.59;5094608;28;20384;-77
2023/11/03 02:03:22;;;;;;;;;;;;;;;14.49;60.19;98812.59;5094797;28;19924;-77
2023/11/03 02:05:47;;;;;;;;;;;;;;;14.50;60.13;98808.09;5094464;28;19923;-77
2023/11/03 02:08:12;;;;;;;;;;;;;;;14.48;60.02;98810.97;5094380;28;20331;-76
2023/11/03 02:10:42;;;;;;;;;;;;;;;14.43;59.53;98821.44;5094563;28;19912;-78
2023/11/03 02:13:07;;;;;;;;;;;;;;;14.40;59.88;98819.19;5076592;28;19916;-77
2023/11/03 02:15:32;;;;;;;;;;;;;;;14.41;59.70;98807.56;5094377;28;19912;-77
2023/11/03 02:17:58;;;;;;;;;;;;;;;14.41;59.78;98799.59;5094236;28;19911;-77
2023/11/03 02:20:23;;;;;;;;;;;;;;;14.39;59.75;98785.72;5094206;28;19958;-77
2023/11/03 02:22:52;;;;;;;;;;;;;;;14.35;59.81;98789.03;5094234;28;19912;-76
2023/11/03 02:25:17;;;;;;;;;;;;;;;14.29;59.88;98785.41;5094368;28;19921;-77
2023/11/03 02:27:43;;;;;;;;;;;;;;;14.30;60.09;98779.06;5094058;28;19916;-77
2023/11/03 02:30:08;;;;;;;;;;;;;;;14.28;60.56;98791.75;5094179;28;20411;-77
2023/11/03 02:32:33;;;;;;;;;;;;;;;14.26;60.73;98807.09;5094045;28;19919;-76
2023/11/03 02:34:59;;;;;;;;;;;;;;;14.27;60.69;98798.09;5094087;28;19916;-77
2023/11/03 02:37:24;;;;;;;;;;;;;;;14.31;60.40;98801.94;5094007;28;19926;-76
2023/11/03 02:39:49;;;;;;;;;;;;;;;14.34;60.42;98811.31;5093826;28;19919;-75
2023/11/03 02:42:15;;;;;;;;;;;;;;;14.35;60.31;98821.72;5092419;28;20281;-75
2023/11/03 02:44:41;;;;;;;;;;;;;;;14.40;60.13;98821.06;5093959;28;20305;-76
2023/11/03 02:47:06;;;;;;;;;;;;;;;14.40;60.82;98821.84;5093608;28;19920;-76
2023/11/03 02:49:32;;;;;;;;;;;;;;;14.34;60.94;98821.94;5098259;28;20365;-76
2023/11/03 02:51:57;;;;;;;;;;;;;;;14.32;60.69;98827.47;5099558;28;19912;-76
2023/11/03 02:54:22;;;;;;;;;;;;;;;14.34;60.44;98825.41;5092982;28;19915;-76
2023/11/03 02:56:47;;;;;;;;;;;;;;;14.39;60.53;98819.44;5093682;28;19964;-76
2023/11/03 02:59:13;;;;;;;;;;;;;;;14.34;61.29;98812.13;5092260;28;19919;-76
2023/11/03 03:01:40;;;;;;;;;;;;;;;14.30;61.15;98808.28;5093828;28;19912;-76
2023/11/03 03:04:05;;;;;;;;;;;;;;;14.29;61.48;98796.03;5093314;28;20312;-76
2023/11/03 03:06:31;;;;;;;;;;;;;;;14.24;61.45;98786.06;5093340;28;19923;-76
2023/11/03 03:08:56;;;;;;;;;;;;;;;14.21;61.77;98791.00;5092824;28;19912;-75
2023/11/03 03:11:22;;;;;;;;;;;;;;;14.22;61.69;98805.91;5093253;28;20298;-77
2023/11/03 03:13:48;;;;;;;;;;;;;;;14.28;60.98;98797.06;5093297;28;19912;-76
2023/11/03 03:16:17;;;;;;;;;;;;;;;14.29;62.64;98791.53;5093109;28;19985;-77
2023/11/03 03:18:42;;;;;;;;;;;;;;;14.30;63.31;98784.38;5093082;28;19904;-77
2023/11/03 03:21:07;;;;;;;;;;;;;;;14.33;61.74;98786.59;5093032;28;19965;-76
2023/11/03 03:23:33;;;;;;;;;;;;;;;14.32;61.14;98792.94;5091859;28;19912;-76
2023/11/03 03:25:58;;;;;;;;;;;;;;;14.28;59.90;98783.78;5093028;28;19923;-76
2023/11/03 03:28:23;;;;;;;;;;;;;;;14.16;59.99;98782.91;5093230;28;19987;-76
2023/11/03 03:30:48;;;;;;;;;;;;;;;14.09;60.29;98782.94;5093024;28;20292;-76
2023/11/03 03:33:14;;;;;;;;;;;;;;;14.10;60.33;98767.81;5093021;28;19908;-76
2023/11/03 03:35:39;;;;;;;;;;;;;;;14.13;60.19;98768.22;5093062;28;19962;-76
2023/11/03 03:38:05;;;;;;;;;;;;;;;14.15;60.29;98757.38;5092929;28;19916;-76
2023/11/03 03:40:30;;;;;;;;;;;;;;;14.14;61.37;98763.72;5092750;28;19912;-76
2023/11/03 03:42:55;;;;;;;;;;;;;;;14.10;63.07;98762.50;5092565;28;20385;-77
2023/11/03 03:45:21;;;;;;;;;;;;;;;14.11;63.60;98764.94;5092663;28;19934;-75
2023/11/03 03:47:46;;;;;;;;;;;;;;;14.16;63.44;98761.66;5092954;28;20332;-76
2023/11/03 03:50:11;;;;;;;;;;;;;;;14.19;63.87;98759.38;5092635;28;19912;-76
2023/11/03 03:52:36;;;;;;;;;;;;;;;14.23;64.84;98757.09;5092558;28;19911;-76
2023/11/03 03:55:02;;;;;;;;;;;;;;;14.21;63.89;98757.31;5074267;28;20349;-75
2023/11/03 03:57:27;;;;;;;;;;;;;;;14.17;62.12;98765.94;5092696;28;19916;-77
2023/11/03 03:59:52;;;;;;;;;;;;;;;14.11;61.80;98759.63;5091541;28;19916;-77
2023/11/03 04:02:18;;;;;;;;;;;;;;;14.13;61.40;98746.16;5092091;28;19916;-77
2023/11/03 04:04:46;;;;;;;;;;;;;;;14.11;61.28;98750.84;5091219;28;19912;-76
2023/11/03 04:07:11;;;;;;;;;;;;;;;14.14;61.25;98751.25;5092886;28;19916;-76
2023/11/03 04:09:39;;;;;;;;;;;;;;;14.11;61.89;98738.41;5092459;28;19965;-76
2023/11/03 04:12:05;;;;;;;;;;;;;;;14.09;62.07;98737.81;5092355;28;19932;-77
2023/11/03 04:14:30;;;;;;;;;;;;;;;14.11;62.16;98738.41;5092335;28;20454;-76
2023/11/03 04:16:56;;;;;;;;;;;;;;;14.17;61.72;98726.13;5090860;28;20320;-76
2023/11/03 04:19:21;;;;;;;;;;;;;;;14.17;62.20;98718.97;5092276;28;19944;-76
2023/11/03 04:21:46;;;;;;;;;;;;;;;14.19;62.33;98703.63;5091820;28;19912;-76
2023/11/03 04:24:11;;;;;;;;;;;;;;;14.17;64.09;98688.94;5092269;28;19941;-76
2023/11/03 04:26:38;;;;;;;;;;;;;;;14.12;64.41;98689.63;5092311;28;19916;-76
2023/11/03 04:29:03;;;;;;;;;;;;;;;14.08;64.99;98696.38;5092283;28;19928;-76
2023/11/03 04:31:29;;;;;;;;;;;;;;;14.05;65.87;98703.97;5092169;28;19916;-76
2023/11/03 04:33:54;;;;;;;;;;;;;;;14.04;65.67;98700.50;5092100;28;19991;-76
2023/11/03 04:36:20;;;;;;;;;;;;;;;14.08;64.43;98701.66;5092350;28;20050;-75
2023/11/03 04:38:45;;;;;;;;;;;;;;;14.18;64.30;98693.22;5092311;28;19920;-75
2023/11/03 04:41:10;;;;;;;;;;;;;;;14.25;63.95;98681.50;5092060;28;20008;-76
2023/11/03 04:43:38;;;;;;;;;;;;;;;14.26;64.76;98680.47;5091964;28;19999;-75
2023/11/03 04:46:05;;;;;;;;;;;;;;;14.25;65.40;98692.13;5091901;28;19923;-76
2023/11/03 04:48:30;;;;;;;;;;;;;;;14.23;65.73;98698.69;5092068;28;19920;-76
2023/11/03 04:50:56;;;;;;;;;;;;;;;14.25;64.59;98697.41;5091959;28;19912;-76
2023/11/03 04:53:22;;;;;;;;;;;;;;;14.34;63.76;98703.25;5091724;28;19919;-76
2023/11/03 04:55:47;;;;;;;;;;;;;;;14.38;63.88;98707.06;5073563;28;19935;-76
2023/11/03 04:58:13;;;;;;;;;;;;;;;14.38;64.39;98680.53;5092179;28;19919;-75
2023/11/03 05:00:38;;;;;;;;;;;;;;;14.38;65.53;98674.41;5073823;28;19962;-76
2023/11/03 05:03:04;;;;;;;;;;;;;;;14.32;65.46;98670.78;5091543;28;19920;-76
2023/11/03 05:05:32;;;;;;;;;;;;;;;14.30;65.83;98683.47;5091912;28;19965;-75
2023/11/03 05:07:57;;;;;;;;;;;;;;;14.26;66.40;98688.41;5073564;28;19916;-76
2023/11/03 05:10:23;;;;;;;;;;;;;;;14.22;66.35;98695.22;5091763;28;19923;-76
2023/11/03 05:12:48;;;;;;;;;;;;;;;14.30;64.91;98707.38;5091681;28;20170;-75
2023/11/03 05:15:13;;;;;;;;;;;;;;;14.34;65.50;98683.84;5091841;28;19912;-76
2023/11/03 05:17:39;;;;;;;;;;;;;;;14.34;64.12;98692.63;5092225;28;19945;-76
2023/11/03 05:20:07;;;;;;;;;;;;;;;14.30;63.33;98710.03;5095195;28;19943;-76
2023/11/03 05:22:32;;;;;;;;;;;;;;;14.23;63.26;98709.31;5095933;28;19919;-76
2023/11/03 05:24:58;;;;;;;;;;;;;;;14.15;62.85;98705.09;5094746;28;20320;-76
2023/11/03 05:27:24;;;;;;;;;;;;;;;13.99;62.98;98714.41;5091501;28;19975;-75
2023/11/03 05:29:49;;;;;;;;;;;;;;;13.88;62.98;98728.41;5091524;28;20388;-76
2023/11/03 05:32:15;;;;;;;;;;;;;;;13.83;63.02;98740.72;5093450;28;19908;-76
2023/11/03 05:34:40;;;;;;;;;;;;;;;13.80;63.02;98727.88;5095267;28;19943;-76
2023/11/03 05:37:06;;;;;;;;;;;;;;;13.73;63.12;98730.59;5095165;28;19947;-77
2023/11/03 05:39:32;;;;;;;;;;;;;;;13.64;63.37;98739.88;5095116;28;20430;-76
2023/11/03 05:41:57;;;;;;;;;;;;;;;13.55;63.80;98741.16;5095150;28;19920;-76
2023/11/03 05:44:24;;;;;;;;;;;;;;;13.52;64.22;98739.75;5095154;28;19912;-76
2023/11/03 05:46:49;;;;;;;;;;;;;;;13.52;64.41;98749.56;5094954;28;19974;-76
2023/11/03 05:49:14;;;;;;;;;;;;;;;13.48;64.33;98743.88;5076892;28;19963;-77
2023/11/03 05:51:40;;;;;;;;;;;;;;;13.56;64.07;98751.56;5074753;28;20313;-76
2023/11/03 05:54:05;;;;;;;;;;;;;;;13.60;64.91;98760.72;5074615;28;19919;-76
2023/11/03 05:56:31;;;;;;;;;;;;;;;13.67;64.01;98758.00;5074424;28;19913;-76
2023/11/03 05:58:56;;;;;;;;;;;;;;;13.76;64.34;98755.88;5074542;28;19923;-77
2023/11/03 06:01:22;;;;;;;;;;;;;;;13.82;64.33;98749.72;5074447;28;19913;-76
2023/11/03 06:03:47;;;;;;;;;;;;;;;13.79;65.01;98755.44;5074226;28;19921;-76
2023/11/03 06:06:12;;;;;;;;;;;;;;;13.83;64.39;98744.19;5056638;28;19950;-76
2023/11/03 06:08:38;;;;;;;;;;;;;;;13.91;64.56;98735.94;5074151;28;19912;-77
2023/11/03 06:11:03;;;;;;;;;;;;;;;13.95;63.30;98729.16;5056417;28;19912;-78
2023/11/03 06:13:28;;;;;;;;;;;;;;;13.98;64.25;98727.91;5074320;28;20316;-77
2023/11/03 06:15:54;;;;;;;;;;;;;;;14.03;64.08;98730.72;5074144;28;20022;-76
2023/11/03 06:18:19;;;;;;;;;;;;;;;14.10;64.93;98738.63;5056273;28;19912;-78
2023/11/03 06:20:45;;;;;;;;;;;;;;;14.13;64.47;98728.41;5072733;28;19977;-78
2023/11/03 06:23:10;;;;;;;;;;;;;;;14.20;65.05;98731.78;5073915;28;19927;-77
2023/11/03 06:25:35;;;;;;;;;;;;;;;14.27;64.52;98742.34;5073946;28;20377;-77
2023/11/03 06:28:00;;;;;;;;;;;;;;;14.32;63.74;98740.63;5073988;28;19925;-76
2023/11/03 06:30:26;;;;;;;;;;;;;;;14.36;63.11;98737.53;5073892;28;19913;-77
2023/11/03 06:32:51;;;;;;;;;;;;;;;14.32;64.98;98739.84;5073720;28;19953;-77
2023/11/03 06:35:16;;;;;;;;;;;;;;;14.23;65.19;98741.16;5074003;28;19987;-77
2023/11/03 06:37:42;;;;;;;;;;;;;;;14.09;66.92;98739.66;5073914;28;20313;-77
2023/11/03 06:40:10;;;;;;;;;;;;;;;13.89;66.15;98719.44;5073790;28;20042;-77
2023/11/03 06:42:39;;;;;;;;;;;;;;;13.78;66.90;98714.84;5073275;28;19991;-77
2023/11/03 06:45:07;;;;;;;;;;;;;;;13.86;66.94;98709.25;5073054;28;19912;-77
2023/11/03 06:47:33;;;;;;;;;;;;;;;13.96;66.54;98708.75;5073492;28;19928;-76
2023/11/03 06:49:59;;;;;;;;;;;;;;;14.09;65.96;98705.13;5073320;28;19916;-77
2023/11/03 06:52:24;;;;;;;;;;;;;;;14.14;67.35;98702.66;5079351;28;19920;-77
2023/11/03 06:54:50;;;;;;;;;;;;;;;14.17;67.66;98700.38;5091320;28;20454;-76
2023/11/03 06:57:15;;;;;;;;;;;;;;;14.19;66.36;98700.16;5085249;28;20007;-76
2023/11/03 06:59:44;;;;;;;;;;;;;;;14.22;66.94;98702.38;5073942;28;19952;-77
2023/11/03 07:02:10;;;;;;;;;;;;;;;14.22;68.17;98697.06;5073168;28;20378;-76
2023/11/03 07:04:36;;;;;;;;;;;;;;;14.30;66.45;98702.88;5083005;28;19920;-78
2023/11/03 07:07:02;;;;;;;;;;;;;;;14.42;66.71;98692.34;5081685;28;19970;-77
2023/11/03 07:09:27;;;;;;;;;;;;;;;14.57;66.79;98684.78;5090773;28;20343;-77
2023/11/03 07:11:54;;;;;;;;;;;;;;;14.66;65.53;98676.50;5093017;28;19954;-76
2023/11/03 07:14:20;;;;;;;;;;;;;;;14.72;66.67;98687.03;5074868;28;19923;-76
2023/11/03 07:16:47;;;;;;;;;;;;;;;14.82;66.20;98691.81;5092967;28;19912;-77
2023/11/03 07:19:13;;;;;;;;;;;;;;;14.97;65.77;98670.97;5092811;28;19955;-77
2023/11/03 07:21:38;;;;;;;;;;;;;;;15.09;65.40;98668.34;5074540;28;19943;-77
2023/11/03 07:24:04;;;;;;;;;;;;;;;15.16;65.11;98661.88;5092976;28;20373;-77
2023/11/03 07:26:30;;;;;;;;;;;;;;;15.22;66.24;98663.63;5093041;28;20362;-76
2023/11/03 07:28:55;;;;;;;;;;;;;;;15.35;65.52;98669.75;5092926;28;20045;-76
2023/11/03 07:31:20;;;;;;;;;;;;;;;15.50;66.71;98670.13;5092925;28;20301;-76
2023/11/03 07:33:45;;;;;;;;;;;;;;;15.57;65.32;98670.81;5092945;28;19994;-77
2023/11/03 07:36:11;;;;;;;;;;;;;;;15.21;66.10;98600.84;5068878;28;19924;-76
2023/11/03 07:38:36;;;;;;;;;;;;;;;15.73;65.16;98675.50;5087003;28;19919;-76
2023/11/03 07:41:02;;;;;;;;;;;;;;;15.80;64.65;98680.69;5087995;28;19912;-77
2023/11/03 07:43:28;;;;;;;;;;;;;;;15.84;65.00;98680.00;5091342;28;19912;-77
2023/11/03 07:45:53;;;;;;;;;;;;;;;15.89;65.43;98680.09;5092504;28;19912;-77
2023/11/03 07:48:19;;;;;;;;;;;;;;;15.95;65.78;98681.03;5091397;28;19923;-77
2023/11/03 07:50:44;;;;;;;;;;;;;;;16.03;65.29;98685.19;5081250;28;19925;-77
2023/11/03 07:53:09;;;;;;;;;;;;;;;16.08;64.82;98680.78;5081409;28;20385;-76
2023/11/03 07:55:35;;;;;;;;;;;;;;;16.12;64.84;98684.59;5074268;28;19920;-78
2023/11/03 07:58:00;;;;;;;;;;;;;;;16.23;65.40;98671.47;5090843;28;19958;-78
2023/11/03 08:00:27;;;;;;;;;;;;;;;16.29;64.80;98675.88;5091120;28;19948;-78
2023/11/03 08:02:52;;;;;;;;;;;;;;;16.40;64.13;98659.88;5090649;28;19982;-77
2023/11/03 08:05:18;;;;;;;;;;;;;;;16.52;64.18;98659.84;5091577;28;19912;-76
2023/11/03 08:07:43;;;;;;;;;;;;;;;16.62;63.67;98644.03;5090550;28;19931;-77
2023/11/03 08:10:11;;;;;;;;;;;;;;;16.73;63.28;98635.19;5090966;28;19974;-77
2023/11/03 08:12:38;;;;;;;;;;;;;;;16.84;63.26;98623.66;5090148;28;20381;-77
2023/11/03 08:15:04;;;;;;;;;;;;;;;16.94;63.47;98620.34;5085858;28;19927;-77
2023/11/03 08:17:29;;;;;;;;;;;;;;;17.02;62.41;98621.81;5071741;28;19920;-76
2023/11/03 08:19:54;;;;;;;;;;;;;;;17.08;62.88;98621.66;5080221;28;20005;-77
2023/11/03 08:22:20;;;;;;;;;;;;;;;17.18;61.78;98609.56;5068535;28;19939;-77
2023/11/03 08:24:45;;;;;;;;;;;;;;;17.25;62.35;98603.00;5069765;28;20313;-76
2023/11/03 08:27:10;;;;;;;;;;;;;;;17.35;62.96;98589.00;5069886;28;19970;-75
2023/11/03 08:29:36;;;;;;;;;;;;;;;17.41;62.89;98588.81;5058755;28;19916;-77
2023/11/03 08:32:02;;;;;;;;;;;;;;;17.47;62.96;98595.03;5074467;28;19971;-78
2023/11/03 08:34:29;;;;;;;;;;;;;;;17.52;62.94;98591.63;5090945;28;20359;-77
2023/11/03 08:36:54;;;;;;;;;;;;;;;17.56;63.00;98590.91;5091719;28;19916;-78
2023/11/03 08:39:20;;;;;;;;;;;;;;;17.66;62.51;98588.41;5091686;28;19978;-77
2023/11/03 08:41:45;;;;;;;;;;;;;;;17.83;61.11;98580.34;5089703;28;19918;-77
2023/11/03 08:44:11;;;;;;;;;;;;;;;17.98;63.08;98579.75;5091789;28;20406;-77
2023/11/03 08:46:36;;;;;;;;;;;;;;;18.19;62.07;98562.88;5073471;28;19916;-77
2023/11/03 08:49:01;;;;;;;;;;;;;;;18.42;61.14;98562.59;5072787;28;19995;-77
2023/11/03 08:51:27;;;;;;;;;;;;;;;18.63;60.76;98571.66;5071988;28;19924;-77
2023/11/03 08:53:52;;;;;;;;;;;;;;;18.78;61.74;98570.97;5071320;28;19965;-77
2023/11/03 08:56:18;;;;;;;;;;;;;;;18.93;60.85;98578.31;5071169;28;20412;-77
2023/11/03 08:58:43;;;;;;;;;;;;;;;19.09;59.31;98568.53;5085616;28;19923;-76
2023/11/03 09:01:10;;;;;;;;;;;;;;;19.19;59.31;98560.59;5091513;28;20334;-77
2023/11/03 09:03:35;;;;;;;;;;;;;;;19.32;59.42;98562.81;5082205;28;19973;-77
2023/11/03 09:06:00;;;;;;;;;;;;;;;19.39;59.10;98562.59;5089951;28;20382;-77
2023/11/03 09:08:26;;;;;;;;;;;;;;;19.46;58.76;98545.25;5090858;28;19916;-77
2023/11/03 09:10:51;;;;;;;;;;;;;;;19.50;58.94;98546.34;5080914;28;19916;-76
2023/11/03 09:13:16;;;;;;;;;;;;;;;19.56;58.71;98539.97;5077147;28;20442;-76
2023/11/03 09:15:43;;;;;;;;;;;;;;;19.61;59.37;98531.97;5084151;28;19924;-76
2023/11/03 09:18:09;;;;;;;;;;;;;;;19.74;58.87;98540.59;5083793;28;19913;-76
2023/11/03 09:20:34;;;;;;;;;;;;;;;19.81;58.72;98525.06;5094739;28;19916;-77
2023/11/03 09:22:59;;;;;;;;;;;;;;;19.91;57.98;98525.09;5092826;28;19916;-75
2023/11/03 09:25:27;;;;;;;;;;;;;;;19.95;58.43;98532.34;5094480;28;20395;-75
2023/11/03 09:27:52;;;;;;;;;;;;;;;20.00;57.86;98518.97;5064679;28;19921;-76
2023/11/03 09:30:18;;;;;;;;;;;;;;;20.03;57.65;98512.28;5084540;28;19947;-76
2023/11/03 09:32:47;;;;;;;;;;;;;;;20.05;57.45;98494.06;5084444;28;19924;-76
2023/11/03 09:35:12;;;;;;;;;;;;;;;20.09;57.40;98484.44;5072415;28;19936;-76
2023/11/03 09:37:38;;;;;;;;;;;;;;;20.14;57.16;98487.13;5064667;28;20388;-76
2023/11/03 09:40:03;;;;;;;;;;;;;;;20.14;57.22;98470.25;5081510;28;19924;-75
2023/11/03 09:42:29;;;;;;;;;;;;;;;20.16;56.98;98463.56;5092247;28;19994;-76
2023/11/03 09:44:57;;;;;;;;;;;;;;;20.19;57.08;98472.94;5091320;28;19916;-77
2023/11/03 09:47:24;;;;;;;;;;;;;;;20.25;57.00;98478.03;5075805;28;19920;-76
2023/11/03 09:49:49;;;;;;;;;;;;;;;20.32;56.75;98475.09;5076702;28;20418;-77
2023/11/03 09:52:15;;;;;;;;;;;;;;;20.39;56.64;98472.16;5093648;28;19999;-76
2023/11/03 09:54:41;;;;;;;;;;;;;;;20.47;56.72;98474.31;5074733;28;20005;-77
2023/11/03 09:57:09;;;;;;;;;;;;;;;20.49;56.57;98467.63;5094354;28;19916;-76
2023/11/03 09:59:35;;;;;;;;;;;;;;;20.53;56.71;98463.34;5094420;28;20397;-75
2023/11/03 10:02:09;;;;;;;;;;;;;;;20.57;56.53;98463.59;5082989;28;20017;-77
2023/11/03 10:04:38;;;;;;;;;;;;;;;20.63;56.28;98446.44;5073972;28;19927;-78
2023/11/03 10:07:05;;;;;;;;;;;;;;;20.68;56.55;98459.84;5072562;28;20385;-77
2023/11/03 10:09:30;;;;;;;;;;;;;;;20.76;56.06;98437.03;5076998;28;19989;-77
2023/11/03 10:11:56;;;;;;;;;;;;;;;20.78;56.17;98449.09;5091264;28;19920;-76
2023/11/03 10:14:23;;;;;;;;;;;;;;;20.84;56.00;98455.28;5074032;28;19916;-76
2023/11/03 10:16:50;;;;;;;;;;;;;;;20.97;55.64;98457.41;5073723;28;20026;-77
2023/11/03 10:19:15;;;;;;;;;;;;;;;21.02;55.59;98443.16;5073706;28;20281;-76
2023/11/03 10:21:40;;;;;;;;;;;;;;;21.12;55.22;98440.44;5055816;28;19913;-76
2023/11/03 10:24:06;;;;;;;;;;;;;;;21.18;54.88;98442.03;5074237;28;19908;-76
2023/11/03 10:26:33;;;;;;;;;;;;;;;21.22;54.73;98443.94;5080409;28;19928;-76
2023/11/03 10:28:59;;;;;;;;;;;;;;;21.20;54.61;98438.00;5089575;28;19917;-77
2023/11/03 10:31:26;;;;;;;;;;;;;;;21.23;54.69;98448.22;5075925;28;19919;-76
2023/11/03 10:33:53;;;;;;;;;;;;;;;21.25;54.66;98439.91;5093379;28;19916;-77
2023/11/03 10:36:19;;;;;;;;;;;;;;;21.28;54.52;98423.25;5093852;28;19912;-76
2023/11/03 10:38:44;;;;;;;;;;;;;;;21.31;54.47;98420.00;5088704;28;19924;-76
2023/11/03 10:41:11;;;;;;;;;;;;;;;21.37;54.37;98413.53;5092806;28;19916;-77
2023/11/03 10:43:40;;;;;;;;;;;;;;;21.43;54.19;98400.88;5094138;28;19998;-76
2023/11/03 10:46:12;;;;;;;;;;;;;;;21.49;53.82;98399.78;5093722;28;20381;-76
2023/11/03 10:48:41;;;;;;;;;;;;;;;21.56;53.70;98397.63;5092850;28;19912;-76
2023/11/03 10:51:16;;;;;;;;;;;;;;;21.55;53.45;98399.50;5074854;28;19916;-76
2023/11/03 10:53:48;;;;;;;;;;;;;;;21.59;53.56;98407.81;5070105;28;19916;-75
2023/11/03 10:56:14;;;;;;;;;;;;;;;21.60;53.09;98401.38;5089893;28;20010;-77
2023/11/03 10:58:40;;;;;;;;;;;;;;;21.60;52.98;98389.81;5082508;28;20405;-77
2023/11/03 11:01:19;;;;;;;;;;;;;;;21.56;53.00;98395.75;5086974;28;20002;-77
2023/11/03 11:03:50;;;;;;;;;;;;;;;21.62;52.91;98414.50;5066389;28;19999;-76
2023/11/03 11:06:29;;;;;;;;;;;;;;;21.64;52.68;98406.97;5071545;28;20443;-77
2023/11/03 11:08:57;;;;;;;;;;;;;;;21.69;52.90;98399.69;5072722;28;19913;-76
2023/11/03 11:11:26;;;;;;;;;;;;;;;21.70;52.76;98395.13;5053440;28;20403;-77
2023/11/03 11:13:52;;;;;;;;;;;;;;;21.72;52.79;98383.03;5072656;28;20468;-77
2023/11/03 11:16:18;;;;;;;;;;;;;;;21.68;52.38;98386.53;5072748;28;19999;-76
2023/11/03 11:18:55;;;;;;;;;;;;;;;21.69;52.54;98380.09;5073015;28;20355;-75
2023/11/03 11:21:29;;;;;;;;;;;;;;;21.69;52.56;98401.56;5072809;28;20347;-76
2023/11/03 11:23:55;;;;;;;;;;;;;;;21.67;52.65;98396.47;5072910;28;20006;-78
2023/11/03 11:26:20;;;;;;;;;;;;;;;21.70;52.52;98392.44;5072577;28;19999;-75
2023/11/03 11:28:46;;;;;;;;;;;;;;;21.68;52.50;98400.78;5072344;28;19912;-77
2023/11/03 11:31:37;;;;;;;;;;;;;;;21.68;52.49;98391.91;5072200;28;20408;-77
2023/11/03 11:34:07;;;;;;;;;;;;;;;21.65;52.62;98389.78;5056254;28;20010;-77
2023/11/03 11:36:33;;;;;;;;;;;;;;;21.68;52.45;98394.59;5090930;28;19912;-75
2023/11/03 11:39:13;;;;;;;;;;;;;;;21.67;52.44;98393.00;5078207;28;20313;-75
2023/11/03 11:41:50;;;;;;;;;;;;;;;21.68;52.38;98394.59;5071209;28;20023;-78
2023/11/03 11:44:19;;;;;;;;;;;;;;;21.66;52.32;98383.34;5076139;28;19924;-75
2023/11/03 11:46:46;;;;;;;;;;;;;;;21.66;52.44;98372.59;5085771;28;19973;-75
2023/11/03 11:49:12;;;;;;;;;;;;;;;21.61;52.44;98364.56;5091199;28;19912;-78
2023/11/03 11:51:39;;;;;;;;;;;;;;;21.61;52.55;98353.81;5083529;28;19916;-74
2023/11/03 11:54:07;;;;;;;;;;;;;;;21.60;52.17;98358.38;5080087;28;19912;-76
2023/11/03 11:56:32;;;;;;;;;;;;;;;21.61;52.38;98364.56;5092487;28;20309;-76
2023/11/03 11:58:58;;;;;;;;;;;;;;;21.60;52.56;98355.69;5078659;28;19912;-75
2023/11/03 12:01:23;;;;;;;;;;;;;;;21.64;52.39;98355.94;5077458;28;20436;-77
2023/11/03 12:03:50;;;;;;;;;;;;;;;21.59;52.15;98348.72;5077250;28;19964;-78
2023/11/03 12:06:16;;;;;;;;;;;;;;;21.55;52.34;98329.69;5072160;28;19924;-76
2023/11/03 12:08:43;;;;;;;;;;;;;;;21.56;52.39;98320.53;5056948;28;20326;-77
2023/11/03 12:11:09;;;;;;;;;;;;;;;21.54;52.35;98324.56;5072725;28;19917;-76
2023/11/03 12:13:35;;;;;;;;;;;;;;;21.50;52.36;98307.38;5076829;28;19912;-77
2023/11/03 12:16:00;;;;;;;;;;;;;;;21.50;52.31;98299.34;5091936;28;19995;-76
2023/11/03 12:18:25;;;;;;;;;;;;;;;21.45;52.52;98289.44;5071602;28;20292;-76
2023/11/03 12:21:00;;;;;;;;;;;;;;;21.45;52.53;98275.19;5088051;28;19920;-76
2023/11/03 12:23:25;;;;;;;;;;;;;;;21.43;52.44;98262.06;5090753;28;19950;-76
2023/11/03 12:25:51;;;;;;;;;;;;;;;21.44;52.83;98254.78;5072239;28;19912;-76
2023/11/03 12:28:22;;;;;;;;;;;;;;;21.46;52.72;98258.00;5074594;28;19916;-77
2023/11/03 12:30:51;;;;;;;;;;;;;;;21.49;52.62;98258.25;5070141;28;19920;-76
2023/11/03 12:33:18;;;;;;;;;;;;;;;21.55;52.58;98261.69;5071296;28;20424;-76
2023/11/03 12:35:43;;;;;;;;;;;;;;;21.59;52.50;98264.66;5071658;28;19924;-76
2023/11/03 12:38:10;;;;;;;;;;;;;;;21.64;52.44;98267.28;5074674;28;20321;-76
2023/11/03 12:40:35;;;;;;;;;;;;;;;21.67;52.20;98275.59;5072634;28;19956;-76
2023/11/03 12:43:11;;;;;;;;;;;;;;;21.69;52.24;98265.38;5071207;28;19955;-76